This is the latest recevied weather packets stored in our database for station/object N4QD-13. If no packets are shown the sender has not sent any weather packets the latest 1 day(s).
| Time | Temp. | Humidity | Pressure | Rain* | Wind** | Luminosity | Snow |
|---|---|---|---|---|---|---|---|
| 1778029605 | 22.22° C | 44% | 1012.2 hPa | 0 mm | 1.34 m/s, 80° | 0 W/m² | - |
| 1778029302 | 22.22° C | 44% | 1012.1 hPa | 0 mm | 1.34 m/s, 340° | 0 W/m² | - |
| 1778028999 | 22.22° C | 44% | 1012 hPa | 0 mm | 1.79 m/s, 359° | 0 W/m² | - |
| 1778028696 | 21.67° C | 44% | 1012.2 hPa | 0 mm | 0.45 m/s, 2° | 0 W/m² | - |
| 1778028392 | 22.22° C | 44% | 1011.8 hPa | 0 mm | 1.34 m/s, 34° | 0 W/m² | - |
| 1778028090 | 22.22° C | 43% | 1011.9 hPa | 0 mm | 1.34 m/s, 35° | 0 W/m² | - |
| 1778027786 | 22.22° C | 43% | 1012 hPa | 0 mm | 0.45 m/s, 72° | 0 W/m² | - |
| 1778027482 | 22.78° C | 43% | 1012 hPa | 0 mm | 1.34 m/s, 299° | 0 W/m² | - |
| 1778027178 | 22.78° C | 42% | 1012.1 hPa | 0 mm | 2.24 m/s, 306° | 0 W/m² | - |
| 1778026874 | 23.33° C | 41% | 1011.7 hPa | 0 mm | 2.24 m/s, 307° | 0 W/m² | - |
| 1778026570 | 22.78° C | 42% | 1011.5 hPa | 0 mm | 1.34 m/s, 19° | 0 W/m² | - |
| 1778026268 | 22.78° C | 42% | 1011.7 hPa | 0 mm | 0.89 m/s, 358° | 1 W/m² | - |
| 1778025965 | 22.78° C | 42% | 1011.5 hPa | 0 mm | 1.79 m/s, 356° | 3 W/m² | - |
| 1778025662 | 22.78° C | 41% | 1011.5 hPa | 0 mm | 1.79 m/s, 284° | 6 W/m² | - |
| 1778025360 | 23.33° C | 40% | 1011.7 hPa | 0 mm | 0.89 m/s, 85° | 9 W/m² | - |
| 1778025057 | 23.33° C | 39% | 1011.7 hPa | 0 mm | 2.24 m/s, 322° | 13 W/m² | - |
| 1778024754 | 23.33° C | 39% | 1011.5 hPa | 0 mm | 0.45 m/s, 6° | 17 W/m² | - |
| 1778024450 | 23.89° C | 38% | 1011.5 hPa | 0 mm | 2.24 m/s, 321° | 23 W/m² | - |
| 1778024148 | 23.89° C | 39% | 1011.2 hPa | 0 mm | 1.34 m/s, 13° | 30 W/m² | - |
| 1778023846 | 23.89° C | 39% | 1011.6 hPa | 0 mm | 0.89 m/s, 352° | 38 W/m² | - |
| 1778023543 | 23.89° C | 38% | 1011.4 hPa | 0 mm | 2.24 m/s, 323° | 49 W/m² | - |
| 1778023241 | 24.44° C | 38% | 1011.8 hPa | 0 mm | 0.89 m/s, 334° | 56 W/m² | - |
| 1778022937 | 24.44° C | 37% | 1011.4 hPa | 0 mm | 2.68 m/s, 317° | 47 W/m² | - |
| 1778022636 | 24.44° C | 38% | 1011.5 hPa | 0 mm | 0.89 m/s, 47° | 46 W/m² | - |
| 1778022333 | 24.44° C | 37% | 1011.3 hPa | 0 mm | 2.68 m/s, 328° | 64 W/m² | - |
* Rain latest hour (hover to see other rain measurements)
** Current wind speed in m/s (hover to see current wind gust speed)